sensor_id;sensor_type;location;lat;lon;timestamp;pressure;altitude;pressure_sealevel;temperature;humidity
63204;BME280;49297;43.210;27.914;2023-05-02T00:01:12;101820.72;;;11.91;55.42
63204;BME280;49297;43.210;27.914;2023-05-02T00:03:38;101821.69;;;11.90;55.23
63204;BME280;49297;43.210;27.914;2023-05-02T00:06:04;101815.75;;;11.87;54.74
63204;BME280;49297;43.210;27.914;2023-05-02T00:08:30;101811.53;;;11.84;54.15
63204;BME280;49297;43.210;27.914;2023-05-02T00:10:56;101811.88;;;11.79;53.73
63204;BME280;49297;43.210;27.914;2023-05-02T00:13:23;101815.75;;;11.75;53.16
63204;BME280;49297;43.210;27.914;2023-05-02T00:15:49;101819.59;;;11.71;53.50
63204;BME280;49297;43.210;27.914;2023-05-02T00:18:16;101827.06;;;11.66;54.15
63204;BME280;49297;43.210;27.914;2023-05-02T00:20:43;101834.28;;;11.64;54.24
63204;BME280;49297;43.210;27.914;2023-05-02T00:23:09;101822.59;;;11.67;54.22
63204;BME280;49297;43.210;27.914;2023-05-02T00:25:43;101827.78;;;11.68;54.22
63204;BME280;49297;43.210;27.914;2023-05-02T00:28:10;101828.63;;;11.69;55.36
63204;BME280;49297;43.210;27.914;2023-05-02T00:30:42;101831.66;;;11.64;55.83
63204;BME280;49297;43.210;27.914;2023-05-02T00:33:08;101838.72;;;11.63;56.20
63204;BME280;49297;43.210;27.914;2023-05-02T00:35:34;101837.06;;;11.62;56.49
63204;BME280;49297;43.210;27.914;2023-05-02T00:38:00;101825.72;;;11.60;56.66
63204;BME280;49297;43.210;27.914;2023-05-02T00:40:25;101833.78;;;11.59;56.44
63204;BME280;49297;43.210;27.914;2023-05-02T00:42:51;101832.22;;;11.56;56.23
63204;BME280;49297;43.210;27.914;2023-05-02T00:45:17;101838.59;;;11.54;56.38
63204;BME280;49297;43.210;27.914;2023-05-02T00:47:44;101832.47;;;11.53;56.50
63204;BME280;49297;43.210;27.914;2023-05-02T00:50:10;101832.81;;;11.49;56.38
63204;BME280;49297;43.210;27.914;2023-05-02T00:52:36;101826.06;;;11.45;55.38
63204;BME280;49297;43.210;27.914;2023-05-02T00:55:03;101825.66;;;11.38;55.62
63204;BME280;49297;43.210;27.914;2023-05-02T00:57:31;101824.81;;;11.37;55.03
63204;BME280;49297;43.210;27.914;2023-05-02T00:59:58;101826.72;;;11.35;55.08
63204;BME280;49297;43.210;27.914;2023-05-02T01:02:50;101827.47;;;11.37;55.63
63204;BME280;49297;43.210;27.914;2023-05-02T01:05:27;101834.66;;;11.35;55.72
63204;BME280;49297;43.210;27.914;2023-05-02T01:11:22;101827.09;;;11.31;55.71
63204;BME280;49297;43.210;27.914;2023-05-02T01:13:45;101831.66;;;11.29;55.65
63204;BME280;49297;43.210;27.914;2023-05-02T01:16:13;101826.59;;;11.26;54.66
63204;BME280;49297;43.210;27.914;2023-05-02T01:18:41;101817.44;;;11.30;53.90
63204;BME280;49297;43.210;27.914;2023-05-02T01:21:09;101825.28;;;11.31;53.38
63204;BME280;49297;43.210;27.914;2023-05-02T01:23:45;101813.00;;;11.30;52.88
63204;BME280;49297;43.210;27.914;2023-05-02T01:26:16;101819.25;;;11.29;52.67
63204;BME280;49297;43.210;27.914;2023-05-02T01:28:59;101815.50;;;11.32;52.15
63204;BME280;49297;43.210;27.914;2023-05-02T01:31:30;101819.13;;;11.31;51.80
63204;BME280;49297;43.210;27.914;2023-05-02T01:33:57;101819.75;;;11.34;51.76
63204;BME280;49297;43.210;27.914;2023-05-02T01:36:28;101821.19;;;11.38;51.93
63204;BME280;49297;43.210;27.914;2023-05-02T01:38:56;101816.50;;;11.42;51.30
63204;BME280;49297;43.210;27.914;2023-05-02T01:41:29;101816.50;;;11.42;51.56
63204;BME280;49297;43.210;27.914;2023-05-02T01:43:58;101815.88;;;11.38;51.90
63204;BME280;49297;43.210;27.914;2023-05-02T01:46:32;101822.16;;;11.37;51.94
63204;BME280;49297;43.210;27.914;2023-05-02T01:49:02;101820.81;;;11.32;52.80
63204;BME280;49297;43.210;27.914;2023-05-02T01:51:31;101823.19;;;11.23;53.17
63204;BME280;49297;43.210;27.914;2023-05-02T01:54:04;101815.47;;;11.20;53.64
63204;BME280;49297;43.210;27.914;2023-05-02T01:56:37;101815.06;;;11.14;53.43
63204;BME280;49297;43.210;27.914;2023-05-02T01:59:09;101807.38;;;11.11;53.99
63204;BME280;49297;43.210;27.914;2023-05-02T02:01:54;101819.25;;;11.05;54.59
63204;BME280;49297;43.210;27.914;2023-05-02T02:04:22;101813.22;;;11.03;55.49
63204;BME280;49297;43.210;27.914;2023-05-02T02:06:52;101818.78;;;11.00;55.66
63204;BME280;49297;43.210;27.914;2023-05-02T02:09:20;101817.66;;;10.91;56.03
63204;BME280;49297;43.210;27.914;2023-05-02T02:11:51;101818.69;;;10.89;56.63
63204;BME280;49297;43.210;27.914;2023-05-02T02:14:20;101816.63;;;10.81;56.81
63204;BME280;49297;43.210;27.914;2023-05-02T02:16:52;101820.47;;;10.77;56.92
63204;BME280;49297;43.210;27.914;2023-05-02T02:19:20;101818.75;;;10.76;57.58
63204;BME280;49297;43.210;27.914;2023-05-02T02:21:48;101822.13;;;10.78;57.73
63204;BME280;49297;43.210;27.914;2023-05-02T02:24:16;101825.75;;;10.77;57.66
63204;BME280;49297;43.210;27.914;2023-05-02T02:26:43;101833.31;;;10.70;58.10
63204;BME280;49297;43.210;27.914;2023-05-02T02:29:08;101822.72;;;10.70;58.20
63204;BME280;49297;43.210;27.914;2023-05-02T02:31:35;101832.69;;;10.66;58.24
63204;BME280;49297;43.210;27.914;2023-05-02T02:34:03;101832.38;;;10.58;58.20
63204;BME280;49297;43.210;27.914;2023-05-02T02:36:38;101827.13;;;10.45;58.11
63204;BME280;49297;43.210;27.914;2023-05-02T02:39:38;101832.00;;;10.39;58.26
63204;BME280;49297;43.210;27.914;2023-05-02T02:45:18;101833.06;;;10.23;58.24
63204;BME280;49297;43.210;27.914;2023-05-02T02:48:04;101833.50;;;10.17;58.46
63204;BME280;49297;43.210;27.914;2023-05-02T02:53:57;101835.28;;;10.17;57.50
63204;BME280;49297;43.210;27.914;2023-05-02T02:56:28;101837.94;;;10.17;58.12
63204;BME280;49297;43.210;27.914;2023-05-02T02:59:04;101839.50;;;10.19;57.32
63204;BME280;49297;43.210;27.914;2023-05-02T03:01:31;101840.38;;;10.20;56.91
63204;BME280;49297;43.210;27.914;2023-05-02T03:03:59;101845.13;;;10.27;57.19
63204;BME280;49297;43.210;27.914;2023-05-02T03:06:28;101852.78;;;10.32;57.46
63204;BME280;49297;43.210;27.914;2023-05-02T03:08:56;101853.41;;;10.36;57.31
63204;BME280;49297;43.210;27.914;2023-05-02T03:11:21;101853.41;;;10.36;57.29
63204;BME280;49297;43.210;27.914;2023-05-02T03:13:47;101853.53;;;10.34;57.47
63204;BME280;49297;43.210;27.914;2023-05-02T03:16:38;101850.97;;;10.33;57.91
63204;BME280;49297;43.210;27.914;2023-05-02T03:19:05;101855.50;;;10.31;57.53
63204;BME280;49297;43.210;27.914;2023-05-02T03:21:31;101846.84;;;10.28;57.69
63204;BME280;49297;43.210;27.914;2023-05-02T03:24:01;101862.81;;;10.27;57.43
63204;BME280;49297;43.210;27.914;2023-05-02T03:26:28;101862.09;;;10.25;57.87
63204;BME280;49297;43.210;27.914;2023-05-02T03:28:56;101868.53;;;10.21;58.57
63204;BME280;49297;43.210;27.914;2023-05-02T03:31:22;101875.31;;;10.25;58.45
63204;BME280;49297;43.210;27.914;2023-05-02T03:33:48;101875.19;;;10.26;58.01
63204;BME280;49297;43.210;27.914;2023-05-02T03:36:14;101877.63;;;10.29;57.93
63204;BME280;49297;43.210;27.914;2023-05-02T03:38:40;101880.94;;;10.33;57.49
63204;BME280;49297;43.210;27.914;2023-05-02T03:41:07;101887.50;;;10.40;57.95
63204;BME280;49297;43.210;27.914;2023-05-02T03:43:32;101891.28;;;10.49;57.90
63204;BME280;49297;43.210;27.914;2023-05-02T03:46:06;101888.09;;;10.57;56.83
63204;BME280;49297;43.210;27.914;2023-05-02T03:48:33;101892.34;;;10.59;56.72
63204;BME280;49297;43.210;27.914;2023-05-02T03:51:00;101899.94;;;10.64;56.44
63204;BME280;49297;43.210;27.914;2023-05-02T03:53:26;101901.34;;;10.70;56.82
63204;BME280;49297;43.210;27.914;2023-05-02T03:55:53;101900.97;;;10.74;56.46
63204;BME280;49297;43.210;27.914;2023-05-02T03:58:19;101902.78;;;10.74;56.62
63204;BME280;49297;43.210;27.914;2023-05-02T04:00:45;101900.56;;;10.80;56.28
63204;BME280;49297;43.210;27.914;2023-05-02T04:03:11;101913.25;;;10.88;55.67
63204;BME280;49297;43.210;27.914;2023-05-02T04:05:37;101914.50;;;10.95;55.34
63204;BME280;49297;43.210;27.914;2023-05-02T04:08:03;101900.72;;;10.90;56.04
63204;BME280;49297;43.210;27.914;2023-05-02T04:10:28;101912.16;;;10.91;55.00
63204;BME280;49297;43.210;27.914;2023-05-02T04:12:55;101912.16;;;10.91;54.96
63204;BME280;49297;43.210;27.914;2023-05-02T04:15:20;101911.75;;;10.97;55.37
63204;BME280;49297;43.210;27.914;2023-05-02T04:17:46;101912.78;;;11.07;55.03
63204;BME280;49297;43.210;27.914;2023-05-02T04:20:12;101915.06;;;11.12;54.19
63204;BME280;49297;43.210;27.914;2023-05-02T04:22:38;101916.09;;;11.22;54.03
63204;BME280;49297;43.210;27.914;2023-05-02T04:25:05;101917.44;;;11.28;54.00
63204;BME280;49297;43.210;27.914;2023-05-02T04:27:33;101915.41;;;11.31;53.56
63204;BME280;49297;43.210;27.914;2023-05-02T04:29:59;101909.16;;;11.32;53.45
63204;BME280;49297;43.210;27.914;2023-05-02T04:32:25;101914.72;;;11.40;53.69
63204;BME280;49297;43.210;27.914;2023-05-02T04:34:52;101906.09;;;11.50;53.56
63204;BME280;49297;43.210;27.914;2023-05-02T04:37:17;101906.13;;;11.61;53.40
63204;BME280;49297;43.210;27.914;2023-05-02T04:39:43;101911.34;;;11.74;52.82
63204;BME280;49297;43.210;27.914;2023-05-02T04:42:09;101909.81;;;11.82;52.36
63204;BME280;49297;43.210;27.914;2023-05-02T04:44:35;101908.09;;;11.94;52.47
63204;BME280;49297;43.210;27.914;2023-05-02T04:47:00;101907.72;;;11.99;52.34
63204;BME280;49297;43.210;27.914;2023-05-02T04:49:26;101910.03;;;12.04;51.84
63204;BME280;49297;43.210;27.914;2023-05-02T04:51:52;101912.69;;;12.04;51.73
63204;BME280;49297;43.210;27.914;2023-05-02T04:54:18;101907.97;;;12.07;51.93
63204;BME280;49297;43.210;27.914;2023-05-02T04:56:45;101911.00;;;12.14;51.68
63204;BME280;49297;43.210;27.914;2023-05-02T04:59:11;101916.44;;;12.24;51.41
63204;BME280;49297;43.210;27.914;2023-05-02T05:01:46;101924.28;;;12.36;51.19
63204;BME280;49297;43.210;27.914;2023-05-02T05:04:12;101925.00;;;12.38;51.00
63204;BME280;49297;43.210;27.914;2023-05-02T05:06:38;101925.63;;;12.42;51.40
63204;BME280;49297;43.210;27.914;2023-05-02T05:09:03;101930.22;;;12.51;51.13
63204;BME280;49297;43.210;27.914;2023-05-02T05:11:30;101936.47;;;12.62;50.84
63204;BME280;49297;43.210;27.914;2023-05-02T05:13:56;101932.38;;;12.57;51.16
63204;BME280;49297;43.210;27.914;2023-05-02T05:16:22;101935.88;;;12.58;51.16
63204;BME280;49297;43.210;27.914;2023-05-02T05:18:48;101931.88;;;12.64;51.54
63204;BME280;49297;43.210;27.914;2023-05-02T05:21:14;101932.38;;;12.69;51.47
63204;BME280;49297;43.210;27.914;2023-05-02T05:23:40;101939.03;;;12.74;51.83
63204;BME280;49297;43.210;27.914;2023-05-02T05:26:11;101932.00;;;12.85;51.65
63204;BME280;49297;43.210;27.914;2023-05-02T05:28:37;101941.53;;;12.99;51.32
63204;BME280;49297;43.210;27.914;2023-05-02T05:31:07;101942.47;;;13.09;51.56
63204;BME280;49297;43.210;27.914;2023-05-02T05:33:34;101944.25;;;13.20;51.06
63204;BME280;49297;43.210;27.914;2023-05-02T05:36:07;101950.88;;;13.37;50.50
63204;BME280;49297;43.210;27.914;2023-05-02T05:38:32;101943.72;;;13.48;49.86
63204;BME280;49297;43.210;27.914;2023-05-02T05:40:58;101948.63;;;13.64;49.39
63204;BME280;49297;43.210;27.914;2023-05-02T05:43:24;101945.66;;;13.79;48.95
63204;BME280;49297;43.210;27.914;2023-05-02T05:45:51;101956.56;;;13.97;48.42
63204;BME280;49297;43.210;27.914;2023-05-02T05:48:17;101949.94;;;14.12;47.92
63204;BME280;49297;43.210;27.914;2023-05-02T05:50:43;101957.72;;;14.25;46.11
63204;BME280;49297;43.210;27.914;2023-05-02T05:53:09;101955.66;;;14.38;45.32
63204;BME280;49297;43.210;27.914;2023-05-02T05:55:34;101961.38;;;14.55;45.38
63204;BME280;49297;43.210;27.914;2023-05-02T05:58:02;101946.03;;;14.68;45.34
63204;BME280;49297;43.210;27.914;2023-05-02T06:00:28;101949.03;;;14.84;44.40
63204;BME280;49297;43.210;27.914;2023-05-02T06:02:54;101954.72;;;15.01;44.31
63204;BME280;49297;43.210;27.914;2023-05-02T06:05:19;101963.00;;;15.17;44.03
63204;BME280;49297;43.210;27.914;2023-05-02T06:07:47;101953.47;;;15.34;43.64
63204;BME280;49297;43.210;27.914;2023-05-02T06:10:13;101957.44;;;15.50;43.18
63204;BME280;49297;43.210;27.914;2023-05-02T06:12:39;101962.50;;;15.63;43.15
63204;BME280;49297;43.210;27.914;2023-05-02T06:15:05;101962.97;;;15.77;43.11
63204;BME280;49297;43.210;27.914;2023-05-02T06:17:30;101952.66;;;15.92;42.96
63204;BME280;49297;43.210;27.914;2023-05-02T06:19:56;101954.75;;;16.08;43.57
63204;BME280;49297;43.210;27.914;2023-05-02T06:22:22;101953.59;;;16.21;43.91
63204;BME280;49297;43.210;27.914;2023-05-02T06:24:48;101950.19;;;16.28;44.17
63204;BME280;49297;43.210;27.914;2023-05-02T06:27:13;101959.47;;;16.34;43.04
63204;BME280;49297;43.210;27.914;2023-05-02T06:29:39;101958.34;;;16.36;42.42
63204;BME280;49297;43.210;27.914;2023-05-02T06:32:05;101967.59;;;16.42;42.31
63204;BME280;49297;43.210;27.914;2023-05-02T06:34:32;101968.72;;;16.49;42.92
63204;BME280;49297;43.210;27.914;2023-05-02T06:36:58;101970.53;;;16.49;42.65
63204;BME280;49297;43.210;27.914;2023-05-02T06:39:24;101972.34;;;16.48;42.44
63204;BME280;49297;43.210;27.914;2023-05-02T06:41:50;101974.19;;;16.48;43.01
63204;BME280;49297;43.210;27.914;2023-05-02T06:44:16;101983.75;;;16.50;42.54
63204;BME280;49297;43.210;27.914;2023-05-02T06:46:42;101983.16;;;16.56;43.75
63204;BME280;49297;43.210;27.914;2023-05-02T06:49:07;101982.88;;;16.60;42.92
63204;BME280;49297;43.210;27.914;2023-05-02T06:51:33;101988.53;;;16.56;43.25
63204;BME280;49297;43.210;27.914;2023-05-02T06:53:59;101990.19;;;16.58;42.67
63204;BME280;49297;43.210;27.914;2023-05-02T06:56:25;101988.09;;;16.51;43.71
63204;BME280;49297;43.210;27.914;2023-05-02T06:58:51;101997.41;;;16.47;44.88
63204;BME280;49297;43.210;27.914;2023-05-02T07:01:17;101990.81;;;16.42;44.99
63204;BME280;49297;43.210;27.914;2023-05-02T07:03:42;101992.91;;;16.48;45.33
63204;BME280;49297;43.210;27.914;2023-05-02T07:06:08;102002.16;;;16.53;45.90
63204;BME280;49297;43.210;27.914;2023-05-02T07:08:34;102004.41;;;16.58;46.06
63204;BME280;49297;43.210;27.914;2023-05-02T07:11:01;102011.44;;;16.59;46.78
63204;BME280;49297;43.210;27.914;2023-05-02T07:13:27;102007.38;;;16.55;47.40
63204;BME280;49297;43.210;27.914;2023-05-02T07:15:53;102015.03;;;16.40;48.33
63204;BME280;49297;43.210;27.914;2023-05-02T07:18:19;102013.19;;;16.31;48.61
63204;BME280;49297;43.210;27.914;2023-05-02T07:20:46;102011.00;;;16.07;49.68
63204;BME280;49297;43.210;27.914;2023-05-02T07:23:12;102007.63;;;16.05;52.13
63204;BME280;49297;43.210;27.914;2023-05-02T07:25:37;102011.69;;;16.18;52.63
63204;BME280;49297;43.210;27.914;2023-05-02T07:28:05;102009.81;;;16.29;50.21
63204;BME280;49297;43.210;27.914;2023-05-02T07:30:30;102015.16;;;16.29;48.07
63204;BME280;49297;43.210;27.914;2023-05-02T07:32:56;102022.94;;;16.22;46.71
63204;BME280;49297;43.210;27.914;2023-05-02T07:35:22;102023.34;;;16.17;46.56
63204;BME280;49297;43.210;27.914;2023-05-02T07:37:48;102027.84;;;16.17;44.34
63204;BME280;49297;43.210;27.914;2023-05-02T07:40:13;102025.03;;;16.28;43.82
63204;BME280;49297;43.210;27.914;2023-05-02T07:42:39;102025.72;;;16.40;42.87
63204;BME280;49297;43.210;27.914;2023-05-02T07:45:09;102022.56;;;16.54;42.26
63204;BME280;49297;43.210;27.914;2023-05-02T07:47:35;102024.91;;;16.67;42.99
63204;BME280;49297;43.210;27.914;2023-05-02T07:50:01;102027.13;;;16.82;42.30
63204;BME280;49297;43.210;27.914;2023-05-02T07:52:28;102029.34;;;16.96;41.67
63204;BME280;49297;43.210;27.914;2023-05-02T07:54:54;102032.81;;;17.06;41.54
63204;BME280;49297;43.210;27.914;2023-05-02T07:57:20;102029.25;;;17.16;41.61
63204;BME280;49297;43.210;27.914;2023-05-02T07:59:46;102033.16;;;17.21;41.49
63204;BME280;49297;43.210;27.914;2023-05-02T08:02:12;102032.19;;;17.22;40.57
63204;BME280;49297;43.210;27.914;2023-05-02T08:04:39;102028.19;;;17.26;39.66
63204;BME280;49297;43.210;27.914;2023-05-02T08:07:05;102029.50;;;17.22;40.00
63204;BME280;49297;43.210;27.914;2023-05-02T08:09:32;102022.00;;;17.26;39.78
63204;BME280;49297;43.210;27.914;2023-05-02T08:11:57;102030.28;;;17.33;38.13
63204;BME280;49297;43.210;27.914;2023-05-02T08:14:23;102031.13;;;17.33;38.41
63204;BME280;49297;43.210;27.914;2023-05-02T08:16:49;102032.50;;;17.37;38.57
63204;BME280;49297;43.210;27.914;2023-05-02T08:19:15;102040.63;;;17.45;38.12
63204;BME280;49297;43.210;27.914;2023-05-02T08:21:41;102037.63;;;17.48;37.27
63204;BME280;49297;43.210;27.914;2023-05-02T08:24:07;102036.34;;;17.53;36.92
63204;BME280;49297;43.210;27.914;2023-05-02T08:26:33;102041.38;;;17.56;37.68
63204;BME280;49297;43.210;27.914;2023-05-02T08:28:59;102035.16;;;17.65;38.08
63204;BME280;49297;43.210;27.914;2023-05-02T08:31:25;102037.06;;;17.73;38.27
63204;BME280;49297;43.210;27.914;2023-05-02T08:33:51;102037.97;;;17.81;39.28
63204;BME280;49297;43.210;27.914;2023-05-02T08:36:17;102038.59;;;17.93;39.05
63204;BME280;49297;43.210;27.914;2023-05-02T08:38:44;102040.53;;;18.01;39.13
63204;BME280;49297;43.210;27.914;2023-05-02T08:41:16;102042.56;;;18.07;37.92
63204;BME280;49297;43.210;27.914;2023-05-02T08:43:45;102040.75;;;18.07;37.32
63204;BME280;49297;43.210;27.914;2023-05-02T08:46:12;102033.41;;;18.10;36.50
63204;BME280;49297;43.210;27.914;2023-05-02T08:48:40;102041.97;;;18.13;39.56
63204;BME280;49297;43.210;27.914;2023-05-02T08:51:12;102037.59;;;18.12;40.72
63204;BME280;49297;43.210;27.914;2023-05-02T08:53:40;102028.34;;;18.06;43.25
63204;BME280;49297;43.210;27.914;2023-05-02T08:56:08;102027.41;;;18.16;44.33
63204;BME280;49297;43.210;27.914;2023-05-02T08:58:36;102028.63;;;18.21;41.25
63204;BME280;49297;43.210;27.914;2023-05-02T09:01:07;102033.66;;;18.24;38.26
63204;BME280;49297;43.210;27.914;2023-05-02T09:03:35;102035.22;;;18.27;37.51
63204;BME280;49297;43.210;27.914;2023-05-02T09:08:34;102042.34;;;18.44;38.57
63204;BME280;49297;43.210;27.914;2023-05-02T09:11:01;102042.72;;;18.50;39.81
63204;BME280;49297;43.210;27.914;2023-05-02T09:16:15;102027.84;;;18.55;41.32
63204;BME280;49297;43.210;27.914;2023-05-02T09:18:48;102040.16;;;18.40;41.10
63204;BME280;49297;43.210;27.914;2023-05-02T09:21:18;102037.78;;;18.37;41.89
63204;BME280;49297;43.210;27.914;2023-05-02T09:23:47;102033.75;;;18.33;43.25
63204;BME280;49297;43.210;27.914;2023-05-02T09:28:43;102029.44;;;18.40;43.08
63204;BME280;49297;43.210;27.914;2023-05-02T09:31:10;102032.16;;;18.48;44.59
63204;BME280;49297;43.210;27.914;2023-05-02T09:33:40;102034.97;;;18.46;44.09
63204;BME280;49297;43.210;27.914;2023-05-02T09:36:07;102025.88;;;18.39;44.99
63204;BME280;49297;43.210;27.914;2023-05-02T09:38:33;102035.25;;;18.35;44.97
63204;BME280;49297;43.210;27.914;2023-05-02T09:40:59;102036.19;;;18.26;45.19
63204;BME280;49297;43.210;27.914;2023-05-02T09:43:25;102040.09;;;18.32;45.96
63204;BME280;49297;43.210;27.914;2023-05-02T09:46:04;102037.34;;;18.23;45.40
63204;BME280;49297;43.210;27.914;2023-05-02T09:48:31;102039.03;;;18.24;46.67
63204;BME280;49297;43.210;27.914;2023-05-02T09:50:58;102040.53;;;18.01;50.00
63204;BME280;49297;43.210;27.914;2023-05-02T09:53:26;102034.34;;;18.00;50.00
63204;BME280;49297;43.210;27.914;2023-05-02T09:56:04;102036.69;;;18.03;50.90
63204;BME280;49297;43.210;27.914;2023-05-02T09:58:30;102032.53;;;18.09;51.35
63204;BME280;49297;43.210;27.914;2023-05-02T10:00:57;102031.94;;;18.15;49.72
63204;BME280;49297;43.210;27.914;2023-05-02T10:03:25;102027.56;;;18.14;51.20
63204;BME280;49297;43.210;27.914;2023-05-02T10:05:52;102040.66;;;18.17;51.65
63204;BME280;49297;43.210;27.914;2023-05-02T10:08:20;102028.75;;;18.20;50.19
63204;BME280;49297;43.210;27.914;2023-05-02T10:10:53;102029.84;;;18.27;49.98
63204;BME280;49297;43.210;27.914;2023-05-02T10:13:21;102031.75;;;18.35;49.56
63204;BME280;49297;43.210;27.914;2023-05-02T10:15:58;102036.69;;;18.48;49.54
63204;BME280;49297;43.210;27.914;2023-05-02T10:21:11;102032.75;;;18.60;51.53
63204;BME280;49297;43.210;27.914;2023-05-02T10:23:41;102031.09;;;18.67;48.32
63204;BME280;49297;43.210;27.914;2023-05-02T10:26:15;102029.81;;;18.79;48.36
63204;BME280;49297;43.210;27.914;2023-05-02T10:28:41;102033.97;;;19.00;47.82
63204;BME280;49297;43.210;27.914;2023-05-02T10:31:12;102030.53;;;19.24;46.13
63204;BME280;49297;43.210;27.914;2023-05-02T10:33:38;102027.75;;;19.50;45.45
63204;BME280;49297;43.210;27.914;2023-05-02T10:36:07;102033.50;;;19.72;46.13
63204;BME280;49297;43.210;27.914;2023-05-02T10:38:35;102026.47;;;19.87;45.93
63204;BME280;49297;43.210;27.914;2023-05-02T10:41:23;102025.13;;;20.00;43.65
63204;BME280;49297;43.210;27.914;2023-05-02T10:43:52;102024.47;;;20.22;43.26
63204;BME280;49297;43.210;27.914;2023-05-02T10:46:37;102023.75;;;20.61;44.00
63204;BME280;49297;43.210;27.914;2023-05-02T10:49:10;102024.50;;;20.86;43.14
63204;BME280;49297;43.210;27.914;2023-05-02T10:51:41;102019.44;;;21.23;41.85
63204;BME280;49297;43.210;27.914;2023-05-02T10:57:03;102024.50;;;22.03;39.94
63204;BME280;49297;43.210;27.914;2023-05-02T10:59:37;102020.78;;;22.42;39.09
63204;BME280;49297;43.210;27.914;2023-05-02T11:02:05;102023.75;;;22.77;36.93
63204;BME280;49297;43.210;27.914;2023-05-02T11:05:02;102026.59;;;23.21;36.65
63204;BME280;49297;43.210;27.914;2023-05-02T11:07:30;102020.03;;;23.45;35.00
63204;BME280;49297;43.210;27.914;2023-05-02T11:12:46;102023.66;;;24.51;32.98
63204;BME280;49297;43.210;27.914;2023-05-02T11:15:58;102017.38;;;24.79;30.07
63204;BME280;49297;43.210;27.914;2023-05-02T11:18:03;102015.44;;;25.08;30.09
63204;BME280;49297;43.210;27.914;2023-05-02T11:20:42;102023.25;;;25.38;29.39
63204;BME280;49297;43.210;27.914;2023-05-02T11:25:42;102025.19;;;25.84;29.81
63204;BME280;49297;43.210;27.914;2023-05-02T11:34:00;102012.06;;;27.06;27.06
63204;BME280;49297;43.210;27.914;2023-05-02T11:36:33;102016.47;;;27.46;26.87
63204;BME280;49297;43.210;27.914;2023-05-02T11:39:00;102015.84;;;27.76;25.86
63204;BME280;49297;43.210;27.914;2023-05-02T11:41:42;102021.13;;;27.96;25.70
63204;BME280;49297;43.210;27.914;2023-05-02T11:44:08;102015.13;;;28.12;25.42
63204;BME280;49297;43.210;27.914;2023-05-02T11:46:38;102014.00;;;28.20;24.85
63204;BME280;49297;43.210;27.914;2023-05-02T11:49:05;102014.16;;;28.25;24.82
63204;BME280;49297;43.210;27.914;2023-05-02T11:51:32;102014.19;;;28.43;24.90
63204;BME280;49297;43.210;27.914;2023-05-02T11:53:58;102019.84;;;27.98;24.91
63204;BME280;49297;43.210;27.914;2023-05-02T11:56:24;102009.66;;;27.94;24.39
63204;BME280;49297;43.210;27.914;2023-05-02T11:58:58;102009.78;;;28.24;24.54
63204;BME280;49297;43.210;27.914;2023-05-02T12:01:24;102008.63;;;28.57;24.05
63204;BME280;49297;43.210;27.914;2023-05-02T12:04:00;102008.16;;;28.78;22.98
63204;BME280;49297;43.210;27.914;2023-05-02T12:06:26;102009.97;;;28.84;22.23
63204;BME280;49297;43.210;27.914;2023-05-02T12:09:13;102011.25;;;29.00;22.66
63204;BME280;49297;43.210;27.914;2023-05-02T12:11:43;102006.06;;;29.11;22.33
63204;BME280;49297;43.210;27.914;2023-05-02T12:14:10;102015.28;;;29.28;22.24
63204;BME280;49297;43.210;27.914;2023-05-02T12:16:35;102018.66;;;29.42;22.15
63204;BME280;49297;43.210;27.914;2023-05-02T12:19:02;102015.25;;;29.47;21.09
63204;BME280;49297;43.210;27.914;2023-05-02T12:21:29;102014.50;;;29.39;21.65
63204;BME280;49297;43.210;27.914;2023-05-02T12:23:57;102009.41;;;29.13;21.47
63204;BME280;49297;43.210;27.914;2023-05-02T12:26:24;102008.53;;;29.00;20.61
63204;BME280;49297;43.210;27.914;2023-05-02T12:28:54;102000.38;;;29.12;21.82
63204;BME280;49297;43.210;27.914;2023-05-02T12:31:21;101993.84;;;29.32;22.11
63204;BME280;49297;43.210;27.914;2023-05-02T12:33:47;101989.38;;;29.49;21.39
63204;BME280;49297;43.210;27.914;2023-05-02T12:36:14;101996.19;;;29.70;21.83
63204;BME280;49297;43.210;27.914;2023-05-02T12:38:47;101990.28;;;29.73;21.20
63204;BME280;49297;43.210;27.914;2023-05-02T12:41:15;101999.28;;;29.74;22.50
63204;BME280;49297;43.210;27.914;2023-05-02T12:43:48;101992.03;;;29.56;21.40
63204;BME280;49297;43.210;27.914;2023-05-02T12:46:15;101997.59;;;29.19;21.43
63204;BME280;49297;43.210;27.914;2023-05-02T12:48:41;101974.50;;;28.73;21.82
63204;BME280;49297;43.210;27.914;2023-05-02T12:51:20;101986.72;;;28.45;22.68
63204;BME280;49297;43.210;27.914;2023-05-02T12:53:46;101984.53;;;28.35;22.95
63204;BME280;49297;43.210;27.914;2023-05-02T12:56:12;101979.13;;;28.10;22.53
63204;BME280;49297;43.210;27.914;2023-05-02T12:58:47;101979.06;;;27.66;22.02
63204;BME280;49297;43.210;27.914;2023-05-02T13:01:14;101985.56;;;27.40;22.77
63204;BME280;49297;43.210;27.914;2023-05-02T13:03:41;101976.75;;;27.00;23.08
63204;BME280;49297;43.210;27.914;2023-05-02T13:06:07;101981.34;;;26.47;24.02
63204;BME280;49297;43.210;27.914;2023-05-02T13:08:33;101984.31;;;25.72;24.61
63204;BME280;49297;43.210;27.914;2023-05-02T13:11:01;101976.53;;;25.29;24.59
63204;BME280;49297;43.210;27.914;2023-05-02T13:13:28;101976.97;;;24.78;26.18
63204;BME280;49297;43.210;27.914;2023-05-02T13:15:54;101983.22;;;24.43;25.88
63204;BME280;49297;43.210;27.914;2023-05-02T13:18:20;101978.88;;;24.14;26.69
63204;BME280;49297;43.210;27.914;2023-05-02T13:20:46;101984.91;;;23.88;26.88